Time;durP1;ratioP1;P1;durP2;ratioP2;P2;SDS_P1;SDS_P2;PMS_P1;PMS_P2;Temp;Humidity;BMP_temperature;BMP_pressure;BME280_temperature;BME280_humidity;BME280_pressure;Samples;Min_cycle;Max_cycle;Signal;HPM_P1;HPM_P2
2023/02/19 00:02:20;;;;;;;2.33;1.38;;;23.50;47.00;;;;;;6239577;27;80409;-60
2023/02/19 00:05:20;;;;;;;4.72;1.73;;;23.50;47.00;;;;;;6253418;27;80868;-60
2023/02/19 00:08:21;;;;;;;2.15;1.60;;;23.50;47.10;;;;;;6236923;28;81065;-59
2023/02/19 00:11:21;;;;;;;3.20;1.50;;;23.50;46.90;;;;;;6208761;27;83194;-60
2023/02/19 00:14:22;;;;;;;2.42;1.67;;;23.50;47.00;;;;;;6237709;28;80597;-57
2023/02/19 00:17:22;;;;;;;2.42;1.50;;;23.50;47.00;;;;;;6247269;27;80952;-57
2023/02/19 00:20:23;;;;;;;2.42;1.48;;;23.50;47.00;;;;;;6249032;27;81126;-57
2023/02/19 00:23:23;;;;;;;1.70;1.38;;;23.50;47.00;;;;;;6249211;28;81610;-58
2023/02/19 00:26:24;;;;;;;1.92;1.33;;;23.50;46.90;;;;;;6230846;28;80616;-58
2023/02/19 00:29:24;;;;;;;2.10;1.30;;;23.50;47.10;;;;;;6251893;28;80360;-59
2023/02/19 01:10:08;;;;;;;1.50;1.25;;;23.40;46.80;;;;;;6250581;27;80864;-66
2023/02/19 01:13:08;;;;;;;2.45;1.48;;;23.40;46.80;;;;;;6241298;27;81065;-62
2023/02/19 01:16:09;;;;;;;2.08;1.60;;;23.40;47.00;;;;;;6251748;27;80503;-62
2023/02/19 01:19:10;;;;;;;1.35;1.25;;;23.40;46.90;;;;;;6222223;28;83268;-62
2023/02/19 01:22:10;;;;;;;4.70;1.50;;;23.40;46.70;;;;;;6241323;27;80190;-64
2023/02/19 01:25:11;;;;;;;1.95;1.30;;;23.40;46.60;;;;;;6247909;28;80873;-63
2023/02/19 01:28:11;;;;;;;1.98;1.48;;;23.30;46.50;;;;;;6219965;28;80452;-63
2023/02/19 01:31:12;;;;;;;2.03;1.20;;;23.40;46.50;;;;;;6250965;27;80494;-63
2023/02/19 01:34:12;;;;;;;1.90;1.38;;;23.40;46.50;;;;;;6235981;27;80791;-63
2023/02/19 01:37:13;;;;;;;1.75;1.38;;;23.40;46.50;;;;;;6237829;27;81306;-62
2023/02/19 01:40:14;;;;;;;1.58;1.15;;;23.40;46.40;;;;;;6249800;27;81597;-65
2023/02/19 01:43:14;;;;;;;1.98;1.35;;;23.30;46.60;;;;;;6249193;27;80918;-66
2023/02/19 01:46:15;;;;;;;2.95;1.52;;;23.40;46.60;;;;;;6241505;28;82059;-65
2023/02/19 01:49:16;;;;;;;1.63;1.35;;;23.40;46.60;;;;;;6243694;27;80582;-66
2023/02/19 01:52:16;;;;;;;1.60;1.35;;;23.40;46.60;;;;;;6251022;27;80576;-64
2023/02/19 01:55:17;;;;;;;1.40;1.23;;;23.40;46.40;;;;;;6238837;28;80840;-66
2023/02/19 01:58:17;;;;;;;1.83;1.33;;;23.40;46.40;;;;;;6251952;28;82035;-65
2023/02/19 02:01:18;;;;;;;1.65;1.33;;;23.40;46.50;;;;;;6249736;27;81078;-67
2023/02/19 02:04:18;;;;;;;1.73;1.40;;;23.40;46.40;;;;;;6217085;27;82669;-66
2023/02/19 02:10:41;;;;;;;1.30;1.10;;;23.40;46.60;;;;;;6211051;27;82940;-67
2023/02/19 02:13:42;;;;;;;1.55;1.10;;;23.30;46.30;;;;;;6240005;27;80846;-65
2023/02/19 02:16:43;;;;;;;3.20;1.38;;;23.30;46.30;;;;;;6223432;28;80385;-64
2023/02/19 02:19:43;;;;;;;3.50;1.75;;;23.30;46.40;;;;;;6248644;28;80353;-63
2023/02/19 02:22:44;;;;;;;1.58;1.13;;;23.40;46.30;;;;;;6249074;27;82460;-64
2023/02/19 02:25:45;;;;;;;1.52;1.25;;;23.40;46.50;;;;;;6190943;28;82791;-64
2023/02/19 02:28:46;;;;;;;2.70;1.38;;;23.30;46.40;;;;;;6207545;28;83060;-64
2023/02/19 02:31:47;;;;;;;1.27;1.10;;;23.30;46.40;;;;;;6217406;28;82071;-66
2023/02/19 02:34:47;;;;;;;1.13;1.02;;;23.30;46.40;;;;;;6218897;27;83475;-65
2023/02/19 02:37:48;;;;;;;1.20;1.10;;;23.30;46.20;;;;;;6227665;27;83017;-65
2023/02/19 02:40:49;;;;;;;1.23;0.98;;;23.30;46.40;;;;;;6209233;28;82220;-64
2023/02/19 02:43:50;;;;;;;1.30;1.20;;;23.30;46.10;;;;;;6214453;28;81911;-63
2023/02/19 02:46:51;;;;;;;1.30;1.20;;;23.30;46.00;;;;;;6231620;28;83379;-64
2023/02/19 02:50:03;;;;;;;1.35;1.02;;;23.30;46.10;;;;;;6250196;28;80210;-64
2023/02/19 02:56:24;;;;;;;1.23;1.13;;;23.30;46.10;;;;;;6218078;28;82516;-64
2023/02/19 02:59:25;;;;;;;1.88;1.20;;;23.30;46.00;;;;;;6238439;27;80336;-63
2023/02/19 03:02:25;;;;;;;1.30;1.10;;;23.40;46.10;;;;;;6238261;28;80312;-63
2023/02/19 03:08:46;;;;;;;1.77;1.17;;;23.30;46.00;;;;;;6227623;28;83248;-63
2023/02/19 03:21:46;;;;;;;1.67;1.25;;;23.30;45.90;;;;;;6214065;28;83386;-64
2023/02/19 03:28:06;;;;;;;2.42;1.20;;;23.30;46.00;;;;;;6240415;27;81938;-63
2023/02/19 03:31:06;;;;;;;1.75;1.23;;;23.30;46.10;;;;;;6238588;27;80371;-63
2023/02/19 03:34:07;;;;;;;1.40;1.10;;;23.30;46.10;;;;;;6239513;27;80516;-63
2023/02/19 03:37:08;;;;;;;2.00;1.38;;;23.30;46.00;;;;;;6235091;28;83612;-64
2023/02/19 03:40:08;;;;;;;2.10;1.08;;;23.30;46.00;;;;;;6236402;27;81737;-63
2023/02/19 03:43:09;;;;;;;1.95;1.33;;;23.30;46.00;;;;;;6221200;27;82582;-61
2023/02/19 03:46:09;;;;;;;1.88;1.20;;;23.30;46.00;;;;;;6236229;28;81725;-64
2023/02/19 03:49:10;;;;;;;2.90;1.08;;;23.30;46.00;;;;;;6254175;27;80370;-63
2023/02/19 03:52:13;;;;;;;1.88;1.38;;;23.30;45.90;;;;;;6234813;28;81686;-63
2023/02/19 03:55:13;;;;;;;1.23;1.10;;;23.30;45.90;;;;;;6235452;28;83419;-63
2023/02/19 03:58:15;;;;;;;1.05;0.90;;;23.30;45.90;;;;;;6235057;28;83426;-65
2023/02/19 04:01:16;;;;;;;2.10;1.20;;;23.30;45.90;;;;;;6234825;27;82053;-66
2023/02/19 04:04:17;;;;;;;0.90;0.90;;;23.30;45.90;;;;;;6220500;28;81447;-65
2023/02/19 04:07:17;;;;;;;2.08;1.20;;;23.30;46.00;;;;;;6234818;28;81421;-64
2023/02/19 04:10:19;;;;;;;1.60;1.20;;;23.30;46.00;;;;;;6221541;28;83273;-64
2023/02/19 04:13:22;;;;;;;1.77;1.27;;;23.30;46.00;;;;;;6214263;28;80526;-65
2023/02/19 04:16:23;;;;;;;2.05;1.08;;;23.30;45.90;;;;;;6251024;28;80840;-64
2023/02/19 04:19:24;;;;;;;1.38;1.10;;;23.20;46.00;;;;;;6239690;27;81243;-63
2023/02/19 04:22:24;;;;;;;1.30;1.00;;;23.30;46.10;;;;;;6251903;27;80700;-63
2023/02/19 04:25:25;;;;;;;1.10;1.00;;;23.30;46.10;;;;;;6252417;27;80366;-62
2023/02/19 04:28:25;;;;;;;1.17;1.02;;;23.30;46.10;;;;;;6251116;27;80390;-62
2023/02/19 04:31:26;;;;;;;1.35;1.10;;;23.30;46.00;;;;;;6243040;28;80577;-62
2023/02/19 04:34:26;;;;;;;2.17;1.33;;;23.40;46.00;;;;;;6238497;28;85099;-63
2023/02/19 04:37:27;;;;;;;1.50;1.23;;;23.40;46.00;;;;;;6243817;28;80738;-63
2023/02/19 04:40:27;;;;;;;1.27;1.10;;;23.40;46.20;;;;;;6246457;28;80646;-65
2023/02/19 04:43:28;;;;;;;1.83;1.30;;;23.40;46.00;;;;;;6247484;27;81584;-64
2023/02/19 04:46:28;;;;;;;2.10;1.27;;;23.50;45.90;;;;;;6249574;27;80653;-63
2023/02/19 04:49:29;;;;;;;1.25;0.93;;;23.50;45.90;;;;;;6252613;28;80158;-64
2023/02/19 04:52:29;;;;;;;1.30;1.05;;;23.60;45.80;;;;;;6252483;28;80390;-64
2023/02/19 04:55:30;;;;;;;1.50;1.20;;;23.60;45.80;;;;;;6251896;27;80578;-64
2023/02/19 04:58:30;;;;;;;1.73;1.10;;;23.60;45.70;;;;;;6218077;27;80962;-63
2023/02/19 05:01:31;;;;;;;1.30;1.00;;;23.60;45.60;;;;;;6238543;27;80851;-63
2023/02/19 05:04:31;;;;;;;2.28;0.90;;;23.60;45.70;;;;;;6249827;27;80271;-63
2023/02/19 05:07:32;;;;;;;1.15;0.90;;;23.60;45.70;;;;;;6242721;27;80954;-66
2023/02/19 05:10:33;;;;;;;1.33;1.13;;;23.70;45.60;;;;;;6251074;28;81903;-66
2023/02/19 05:13:34;;;;;;;1.55;1.15;;;23.70;45.70;;;;;;6246708;27;80030;-64
2023/02/19 05:16:34;;;;;;;4.15;1.20;;;23.70;45.70;;;;;;6241029;28;83092;-66
2023/02/19 05:19:35;;;;;;;1.35;0.98;;;23.70;45.70;;;;;;6236410;27;82011;-65
2023/02/19 05:22:35;;;;;;;1.63;1.30;;;23.70;45.60;;;;;;6247672;27;82818;-63
2023/02/19 05:25:36;;;;;;;1.70;1.20;;;23.70;45.70;;;;;;6244827;28;81949;-64
2023/02/19 05:28:36;;;;;;;1.23;1.08;;;23.70;45.90;;;;;;6233786;27;83001;-64
2023/02/19 05:31:37;;;;;;;1.90;1.05;;;23.70;46.10;;;;;;6230215;27;81120;-64
2023/02/19 05:34:37;;;;;;;1.08;0.88;;;23.70;46.30;;;;;;6235653;27;80904;-65
2023/02/19 05:37:38;;;;;;;1.75;1.20;;;23.70;46.50;;;;;;6246526;27;81728;-67
2023/02/19 05:40:38;;;;;;;1.60;1.35;;;23.70;47.10;;;;;;6250742;27;81218;-65
2023/02/19 05:43:39;;;;;;;1.17;1.00;;;23.70;46.40;;;;;;6275254;27;80461;-66
2023/02/19 05:46:39;;;;;;;1.25;0.90;;;23.70;46.60;;;;;;6274061;27;80632;-67
2023/02/19 05:49:40;;;;;;;1.45;1.00;;;23.70;46.20;;;;;;6264171;27;80391;-66
2023/02/19 05:52:40;;;;;;;1.55;1.00;;;23.70;46.10;;;;;;6277070;27;80765;-65
2023/02/19 05:55:41;;;;;;;10.63;1.40;;;23.70;46.00;;;;;;6262868;27;80820;-67
2023/02/19 05:58:41;;;;;;;1.55;1.27;;;23.80;45.90;;;;;;6276352;27;80892;-68
2023/02/19 06:01:42;;;;;;;1.98;1.35;;;23.80;46.50;;;;;;6274934;27;80341;-67
2023/02/19 06:04:43;;;;;;;4.50;1.00;;;23.80;46.00;;;;;;6266565;27;80623;-63
2023/02/19 06:07:43;;;;;;;1.80;1.42;;;23.80;45.90;;;;;;6252428;27;84926;-65
2023/02/19 06:10:44;;;;;;;6.32;1.17;;;23.80;46.10;;;;;;6245667;27;86214;-68
2023/02/19 06:13:44;;;;;;;1.27;1.10;;;23.70;46.30;;;;;;6260505;27;81296;-65
2023/02/19 06:16:45;;;;;;;1.38;1.20;;;23.70;46.20;;;;;;6259743;27;82733;-63
2023/02/19 06:19:45;;;;;;;1.27;1.17;;;23.70;46.00;;;;;;6261288;27;82350;-62
2023/02/19 06:22:46;;;;;;;2.20;1.10;;;23.60;45.90;;;;;;6257074;27;81098;-64
2023/02/19 06:25:46;;;;;;;2.53;1.42;;;23.60;46.20;;;;;;6264468;27;82863;-63
2023/02/19 06:28:47;;;;;;;7.70;1.15;;;23.60;46.30;;;;;;6265383;27;80672;-61
2023/02/19 06:31:47;;;;;;;3.17;1.10;;;23.60;46.20;;;;;;6262730;27;80896;-63
2023/02/19 06:34:48;;;;;;;5.47;1.38;;;23.50;46.30;;;;;;6253257;27;81701;-61
2023/02/19 06:37:48;;;;;;;3.75;1.42;;;23.50;46.50;;;;;;6270289;27;88031;-61
2023/02/19 06:40:49;;;;;;;2.17;1.50;;;23.50;47.10;;;;;;6261250;27;80813;-64
2023/02/19 06:43:49;;;;;;;4.43;1.40;;;23.60;47.60;;;;;;6265677;27;81012;-61
2023/02/19 06:46:50;;;;;;;1.52;1.42;;;23.60;47.70;;;;;;6260915;27;83354;-60
2023/02/19 06:49:50;;;;;;;2.05;1.60;;;23.60;48.50;;;;;;6266333;27;80589;-61
2023/02/19 06:52:51;;;;;;;4.10;1.17;;;23.60;49.50;;;;;;6268341;27;80861;-63
2023/02/19 06:55:52;;;;;;;3.78;1.35;;;23.60;49.90;;;;;;6272973;27;80447;-60
2023/02/19 06:58:52;;;;;;;2.10;1.30;;;23.60;49.20;;;;;;6268410;27;81483;-61
2023/02/19 07:01:53;;;;;;;2.13;1.38;;;23.60;49.40;;;;;;6261854;27;80406;-61
2023/02/19 07:04:53;;;;;;;2.75;1.83;;;23.50;49.60;;;;;;6264459;27;80575;-62
2023/02/19 07:07:54;;;;;;;2.67;1.70;;;23.50;49.40;;;;;;6268047;27;80799;-62
2023/02/19 07:10:55;;;;;;;5.90;1.88;;;23.50;49.40;;;;;;6266698;27;82491;-60
2023/02/19 07:13:55;;;;;;;3.92;1.50;;;23.50;49.10;;;;;;6265488;27;80961;-61
2023/02/19 07:16:56;;;;;;;3.03;1.80;;;23.60;49.30;;;;;;6265457;27;82095;-59
2023/02/19 07:19:56;;;;;;;2.72;1.55;;;23.60;49.30;;;;;;6267475;27;80256;-62
2023/02/19 07:22:57;;;;;;;2.03;1.75;;;23.60;49.70;;;;;;6269758;27;80190;-59
2023/02/19 07:25:57;;;;;;;4.82;1.85;;;23.60;49.20;;;;;;6256150;27;81005;-61
2023/02/19 07:28:58;;;;;;;4.45;2.10;;;23.70;49.40;;;;;;6260122;27;81768;-60
2023/02/19 07:31:58;;;;;;;5.00;1.80;;;23.70;49.30;;;;;;6257374;27;84481;-61
2023/02/19 07:34:59;;;;;;;5.47;2.55;;;23.60;49.20;;;;;;6255606;27;80965;-61
2023/02/19 07:38:00;;;;;;;4.18;2.75;;;23.60;49.10;;;;;;6252316;27;80313;-62
2023/02/19 07:41:00;;;;;;;4.82;2.55;;;23.60;49.30;;;;;;6252758;27;81137;-64
2023/02/19 07:44:01;;;;;;;3.20;2.10;;;23.60;49.30;;;;;;6264573;27;81101;-62
2023/02/19 07:47:01;;;;;;;3.00;1.92;;;23.60;49.50;;;;;;6256782;27;80513;-60
2023/02/19 07:50:02;;;;;;;2.88;2.03;;;23.60;49.60;;;;;;6257045;27;80955;-63
2023/02/19 07:53:02;;;;;;;2.95;2.10;;;23.60;49.30;;;;;;6267184;27;80570;-61
2023/02/19 07:56:03;;;;;;;6.22;2.40;;;23.60;49.10;;;;;;6239283;27;86785;-69
2023/02/19 07:59:03;;;;;;;2.90;2.17;;;23.60;49.00;;;;;;6256666;27;82615;-63
2023/02/19 08:05:23;;;;;;;4.13;2.58;;;23.60;48.60;;;;;;6262502;27;81318;-62
2023/02/19 08:08:23;;;;;;;3.28;1.83;;;23.60;48.50;;;;;;6258393;27;80618;-60
2023/02/19 08:14:43;;;;;;;3.25;2.17;;;23.60;48.20;;;;;;6263418;27;81213;-65
2023/02/19 08:17:44;;;;;;;5.30;2.30;;;23.60;48.30;;;;;;6272042;27;80499;-65
2023/02/19 08:20:44;;;;;;;4.32;2.33;;;23.60;48.10;;;;;;6257204;27;81509;-65
2023/02/19 08:23:45;;;;;;;4.82;2.70;;;23.60;48.10;;;;;;6264512;27;81561;-63
2023/02/19 08:26:45;;;;;;;11.15;2.63;;;23.60;48.20;;;;;;6261827;27;80827;-63
2023/02/19 08:29:46;;;;;;;5.43;2.38;;;23.60;49.10;;;;;;6270949;27;80883;-66
2023/02/19 08:32:46;;;;;;;3.50;2.63;;;23.60;48.80;;;;;;6259505;27;83902;-67
2023/02/19 08:35:47;;;;;;;2.80;2.30;;;23.60;49.00;;;;;;6251317;27;80685;-62
2023/02/19 08:38:48;;;;;;;4.15;2.63;;;23.60;49.80;;;;;;6280359;27;81825;-65
2023/02/19 08:41:49;;;;;;;5.60;3.40;;;23.70;49.20;;;;;;6277547;27;83220;-70
2023/02/19 08:44:49;;;;;;;6.65;3.03;;;23.60;49.00;;;;;;6273530;27;80997;-67
2023/02/19 08:47:50;;;;;;;3.78;2.80;;;23.60;49.00;;;;;;6265733;27;84798;-63
2023/02/19 08:50:50;;;;;;;3.45;2.30;;;23.60;48.90;;;;;;6274398;27;85009;-67
2023/02/19 08:53:51;;;;;;;3.75;2.42;;;23.60;48.90;;;;;;6258610;27;84689;-63
2023/02/19 08:56:51;;;;;;;6.50;2.92;;;23.60;48.90;;;;;;6268074;27;82143;-65
2023/02/19 08:59:52;;;;;;;7.00;2.28;;;23.60;48.90;;;;;;6269241;27;80795;-64
2023/02/19 09:02:52;;;;;;;3.40;2.50;;;23.60;48.80;;;;;;6267286;27;80374;-65
2023/02/19 09:05:53;;;;;;;4.95;2.80;;;23.50;49.10;;;;;;6269775;27;81841;-66
2023/02/19 09:08:53;;;;;;;8.35;3.08;;;23.50;49.90;;;;;;6266215;27;82332;-66
2023/02/19 09:11:54;;;;;;;3.97;2.38;;;23.50;49.70;;;;;;6267025;27;80577;-68
2023/02/19 09:14:54;;;;;;;3.58;2.10;;;23.50;49.40;;;;;;6257143;27;87007;-66
2023/02/19 09:17:55;;;;;;;4.18;2.60;;;23.50;49.60;;;;;;6269632;27;86534;-66
2023/02/19 09:20:56;;;;;;;6.35;3.00;;;23.50;49.50;;;;;;6262737;27;84051;-69
2023/02/19 09:23:58;;;;;;;6.65;2.58;;;23.50;50.10;;;;;;6268752;27;81482;-65
2023/02/19 09:26:58;;;;;;;17.25;3.88;;;23.50;50.80;;;;;;6259709;27;81298;-63
2023/02/19 09:29:59;;;;;;;14.48;9.88;;;23.50;51.10;;;;;;6262478;27;81689;-72
2023/02/19 09:32:59;;;;;;;45.88;40.72;;;23.50;51.80;;;;;;6255802;27;81916;-72
2023/02/19 09:36:00;;;;;;;42.28;34.38;;;23.50;52.00;;;;;;6262675;27;83295;-72
2023/02/19 09:39:01;;;;;;;45.90;35.90;;;23.60;52.10;;;;;;6256581;27;84721;-71
2023/02/19 09:42:01;;;;;;;32.72;26.98;;;23.60;52.50;;;;;;6260515;27;84652;-75
2023/02/19 09:45:02;;;;;;;28.00;19.77;;;23.60;51.40;;;;;;6257823;27;83711;-67
2023/02/19 09:48:05;;;;;;;23.77;17.60;;;23.60;51.60;;;;;;6258283;27;83377;-73
2023/02/19 09:51:05;;;;;;;17.73;14.32;;;23.60;52.60;;;;;;6259417;27;83096;-67
2023/02/19 09:54:06;;;;;;;19.70;12.85;;;23.60;52.60;;;;;;6255719;27;83489;-69
2023/02/19 09:57:06;;;;;;;16.38;12.25;;;23.60;53.30;;;;;;6250782;27;83603;-76
2023/02/19 10:00:07;;;;;;;14.70;10.02;;;23.60;53.40;;;;;;6254143;27;84088;-66
2023/02/19 10:03:07;;;;;;;14.57;8.82;;;23.70;54.70;;;;;;6254923;27;83729;-67
2023/02/19 10:06:08;;;;;;;11.57;8.00;;;23.70;54.20;;;;;;6270252;27;81728;-68
2023/02/19 10:09:08;;;;;;;10.75;7.45;;;23.70;54.30;;;;;;6256990;27;81139;-70
2023/02/19 10:12:09;;;;;;;13.73;7.40;;;23.70;54.30;;;;;;6229869;27;82529;-65
2023/02/19 10:15:09;;;;;;;8.00;6.20;;;23.80;53.80;;;;;;6264528;27;80184;-64
2023/02/19 10:18:10;;;;;;;10.25;5.40;;;23.80;53.30;;;;;;6258158;27;81608;-64
2023/02/19 10:21:11;;;;;;;6.00;4.80;;;23.80;53.30;;;;;;6253064;27;80619;-67
2023/02/19 10:24:11;;;;;;;9.32;4.15;;;23.80;52.80;;;;;;6262302;27;81757;-65
2023/02/19 10:27:12;;;;;;;5.63;4.10;;;23.80;52.30;;;;;;6269108;27;80569;-65
2023/02/19 10:30:12;;;;;;;6.03;3.78;;;23.80;52.50;;;;;;6260527;27;80880;-60
2023/02/19 10:33:13;;;;;;;6.97;4.15;;;23.80;52.40;;;;;;6258279;27;80926;-62
2023/02/19 10:36:13;;;;;;;5.68;3.70;;;23.80;52.20;;;;;;6257315;27;80606;-60
2023/02/19 10:39:14;;;;;;;4.03;2.95;;;23.80;52.10;;;;;;6258030;27;84680;-61
2023/02/19 10:42:14;;;;;;;4.53;2.60;;;23.80;52.00;;;;;;6252927;27;80856;-60
2023/02/19 10:45:15;;;;;;;2.97;2.33;;;23.80;51.70;;;;;;6263789;27;85075;-63
2023/02/19 10:48:15;;;;;;;3.22;2.20;;;23.80;51.60;;;;;;6268208;27;81857;-61
2023/02/19 10:51:20;;;;;;;4.68;2.35;;;23.80;51.30;;;;;;6263410;27;80850;-62
2023/02/19 10:54:20;;;;;;;3.80;2.42;;;23.80;51.00;;;;;;6261573;27;80081;-69
2023/02/19 10:57:24;;;;;;;2.50;1.90;;;23.80;50.90;;;;;;6267082;27;81757;-73
2023/02/19 11:00:25;;;;;;;5.10;2.58;;;23.80;50.60;;;;;;6255946;27;83437;-67
2023/02/19 11:03:26;;;;;;;4.57;2.10;;;23.70;50.30;;;;;;6261243;27;80464;-73
2023/02/19 11:06:26;;;;;;;6.75;2.08;;;23.80;50.70;;;;;;6261271;27;81624;-65
2023/02/19 11:09:27;;;;;;;5.00;2.20;;;23.70;50.80;;;;;;6262503;27;82568;-62
2023/02/19 11:12:28;;;;;;;4.97;1.98;;;23.70;51.00;;;;;;6252761;27;81107;-61
2023/02/19 11:15:28;;;;;;;7.07;2.03;;;23.70;51.00;;;;;;6262355;27;81371;-63
2023/02/19 11:18:29;;;;;;;6.72;2.22;;;23.70;50.80;;;;;;6265608;27;80185;-62
2023/02/19 11:21:32;;;;;;;6.55;2.08;;;23.70;51.00;;;;;;6265863;27;80887;-62
2023/02/19 11:24:33;;;;;;;3.47;1.88;;;23.70;51.00;;;;;;6254550;27;80918;-62
2023/02/19 11:27:33;;;;;;;4.80;2.00;;;23.70;51.80;;;;;;6255020;27;80734;-67
2023/02/19 11:30:34;;;;;;;4.63;2.05;;;23.70;52.20;;;;;;6270311;27;86012;-65
2023/02/19 11:33:34;;;;;;;7.47;2.30;;;23.70;53.20;;;;;;6262793;27;81244;-66
2023/02/19 11:36:35;;;;;;;4.22;1.98;;;23.70;53.50;;;;;;6265319;27;85154;-66
2023/02/19 11:39:35;;;;;;;3.92;2.10;;;23.70;53.50;;;;;;6266095;27;80267;-66
2023/02/19 11:42:36;;;;;;;10.30;1.90;;;23.70;53.00;;;;;;6271682;27;82982;-66
2023/02/19 11:45:36;;;;;;;3.08;1.73;;;23.60;52.90;;;;;;6248704;27;83824;-68
2023/02/19 11:48:37;;;;;;;4.03;1.58;;;23.60;53.20;;;;;;6262571;27;80371;-71
2023/02/19 11:51:37;;;;;;;4.63;2.10;;;23.70;53.60;;;;;;6260555;27;80783;-62
2023/02/19 11:54:38;;;;;;;3.53;1.73;;;23.60;53.50;;;;;;6270286;27;82695;-62
2023/02/19 11:57:38;;;;;;;3.78;2.00;;;23.70;53.10;;;;;;6262942;27;81194;-64
2023/02/19 12:00:39;;;;;;;2.33;1.40;;;23.70;52.80;;;;;;6266342;27;85473;-61
2023/02/19 12:03:39;;;;;;;3.05;1.83;;;23.70;52.30;;;;;;6269323;27;80252;-61
2023/02/19 12:06:40;;;;;;;4.13;1.50;;;23.70;52.10;;;;;;6263487;27;80833;-62
2023/02/19 12:09:41;;;;;;;2.47;1.77;;;23.70;52.00;;;;;;6249504;27;85448;-61
2023/02/19 12:12:41;;;;;;;2.55;1.48;;;23.70;51.80;;;;;;6245899;27;82976;-60
2023/02/19 12:15:42;;;;;;;5.93;1.50;;;23.70;51.50;;;;;;6265427;27;80860;-65
2023/02/19 12:18:43;;;;;;;2.08;1.40;;;23.70;51.30;;;;;;6254114;27;83254;-64
2023/02/19 12:21:43;;;;;;;3.88;1.90;;;23.70;51.20;;;;;;6269456;27;86208;-65
2023/02/19 12:24:44;;;;;;;2.35;1.58;;;23.70;50.70;;;;;;6261801;27;80402;-61
2023/02/19 12:27:44;;;;;;;4.35;2.40;;;23.60;50.70;;;;;;6271961;27;80431;-62
2023/02/19 12:30:45;;;;;;;78.75;39.25;;;23.70;50.90;;;;;;6270782;27;81214;-63
2023/02/19 12:33:45;;;;;;;164.02;82.43;;;23.70;51.00;;;;;;6260655;27;85355;-62
2023/02/19 12:36:46;;;;;;;280.92;140.98;;;23.70;50.90;;;;;;6264141;27;84183;-61
2023/02/19 12:39:47;;;;;;;314.20;152.73;;;23.70;50.30;;;;;;6248248;27;86415;-63
2023/02/19 12:42:47;;;;;;;342.40;173.38;;;23.70;50.40;;;;;;6254848;27;86841;-62
2023/02/19 12:45:48;;;;;;;390.50;196.23;;;23.60;50.80;;;;;;6250967;27;87382;-64
2023/02/19 12:48:48;;;;;;;331.98;164.48;;;23.70;51.00;;;;;;6265273;27;85847;-64
2023/02/19 12:51:49;;;;;;;296.92;150.35;;;23.70;50.20;;;;;;6262652;27;85292;-65
2023/02/19 12:54:49;;;;;;;370.33;179.10;;;23.60;50.30;;;;;;6253329;27;85461;-64
2023/02/19 12:57:50;;;;;;;487.38;234.02;;;23.70;50.40;;;;;;6250774;27;85811;-61
2023/02/19 13:00:51;;;;;;;546.15;270.65;;;23.70;50.30;;;;;;6246487;27;91186;-66
2023/02/19 13:03:52;;;;;;;538.78;252.48;;;23.70;50.10;;;;;;6248719;27;86075;-61
2023/02/19 13:06:53;;;;;;;675.72;336.65;;;23.70;50.10;;;;;;6251032;27;86840;-63
2023/02/19 13:09:53;;;;;;;745.88;367.35;;;23.70;50.30;;;;;;6251654;27;85858;-59
2023/02/19 13:12:54;;;;;;;778.08;374.52;;;23.70;50.30;;;;;;6253132;27;88015;-60
2023/02/19 13:15:54;;;;;;;688.38;333.95;;;23.70;50.40;;;;;;6263932;27;86708;-60
2023/02/19 13:18:55;;;;;;;639.20;297.08;;;23.70;50.10;;;;;;6246322;27;91151;-62
2023/02/19 13:25:14;;;;;;;483.15;209.52;;;23.70;49.70;;;;;;6256912;27;85258;-59
2023/02/19 13:28:15;;;;;;;451.98;197.07;;;23.70;49.40;;;;;;6259084;27;85768;-60
2023/02/19 13:31:16;;;;;;;427.15;183.85;;;23.70;49.30;;;;;;6263016;27;85404;-60
2023/02/19 13:34:16;;;;;;;414.25;176.80;;;23.70;49.00;;;;;;6256201;27;86591;-60
2023/02/19 13:37:17;;;;;;;388.45;161.82;;;23.70;48.90;;;;;;6267070;27;86795;-58
2023/02/19 13:40:17;;;;;;;352.52;151.57;;;23.70;48.90;;;;;;6250467;27;86932;-60
2023/02/19 13:43:18;;;;;;;346.88;146.57;;;23.70;48.80;;;;;;6252460;27;85846;-57
2023/02/19 13:46:18;;;;;;;321.40;134.52;;;23.70;48.80;;;;;;6254847;27;85518;-59
2023/02/19 13:49:19;;;;;;;269.58;125.63;;;23.60;48.60;;;;;;6266376;27;88406;-57
2023/02/19 13:52:19;;;;;;;260.58;114.97;;;23.70;48.40;;;;;;6254333;27;85836;-61
2023/02/19 13:55:20;;;;;;;256.40;113.97;;;23.60;48.30;;;;;;6246436;27;85895;-59
2023/02/19 13:58:21;;;;;;;227.40;103.65;;;23.60;48.20;;;;;;6252063;27;86918;-61
2023/02/19 14:01:22;;;;;;;222.35;98.75;;;23.70;49.00;;;;;;6256500;27;87571;-61
2023/02/19 14:04:22;;;;;;;216.75;95.05;;;23.80;48.90;;;;;;6259080;27;85368;-59
2023/02/19 14:07:23;;;;;;;207.18;88.45;;;23.80;48.40;;;;;;6263557;27;83628;-59
2023/02/19 14:10:23;;;;;;;188.05;84.85;;;23.70;48.30;;;;;;6261099;27;83177;-59
2023/02/19 14:13:24;;;;;;;180.10;78.22;;;23.70;48.10;;;;;;6267418;27;86238;-63
2023/02/19 14:16:24;;;;;;;171.77;77.80;;;23.70;48.20;;;;;;6268930;27;85979;-61
2023/02/19 14:19:25;;;;;;;160.80;74.35;;;23.60;48.00;;;;;;6269778;27;84071;-60
2023/02/19 14:22:25;;;;;;;153.43;67.15;;;23.60;48.10;;;;;;6268950;27;83781;-60
2023/02/19 14:25:26;;;;;;;143.93;64.45;;;23.60;48.10;;;;;;6269093;27;84827;-60
2023/02/19 14:28:28;;;;;;;136.85;61.70;;;23.60;48.10;;;;;;6262988;27;83255;-61
2023/02/19 14:31:29;;;;;;;131.75;58.90;;;23.60;47.80;;;;;;6270322;27;89386;-60
2023/02/19 14:34:31;;;;;;;122.55;58.83;;;23.60;47.70;;;;;;6270453;27;83445;-60
2023/02/19 14:37:31;;;;;;;121.65;54.42;;;23.60;47.70;;;;;;6272188;27;83550;-61
2023/02/19 14:40:32;;;;;;;113.18;51.25;;;23.60;47.50;;;;;;6257661;27;84166;-62
2023/02/19 14:43:33;;;;;;;118.40;53.60;;;23.60;47.70;;;;;;6267554;27;83192;-62
2023/02/19 14:46:33;;;;;;;109.85;49.75;;;23.60;48.40;;;;;;6272309;27;84480;-64
2023/02/19 14:49:34;;;;;;;105.20;47.88;;;23.50;48.00;;;;;;6269412;27;85663;-61
2023/02/19 14:52:35;;;;;;;96.32;43.15;;;23.50;48.00;;;;;;6264687;27;83310;-62
2023/02/19 14:55:36;;;;;;;83.82;40.28;;;23.50;48.20;;;;;;6271613;27;83763;-63
2023/02/19 14:58:39;;;;;;;93.95;42.15;;;23.50;48.30;;;;;;6252422;27;82871;-62
2023/02/19 15:01:39;;;;;;;85.13;37.88;;;23.50;48.90;;;;;;6257422;27;85370;-65
2023/02/19 15:04:40;;;;;;;77.70;36.50;;;23.50;48.70;;;;;;6267915;27;84440;-66
2023/02/19 15:07:41;;;;;;;80.20;35.58;;;23.50;48.70;;;;;;6270764;27;82972;-64
2023/02/19 15:10:41;;;;;;;69.97;34.25;;;23.60;48.40;;;;;;6258911;27;84258;-64
2023/02/19 15:13:44;;;;;;;73.97;32.88;;;23.60;48.50;;;;;;6276468;27;84839;-63
2023/02/19 15:16:45;;;;;;;75.13;30.75;;;23.50;48.10;;;;;;6271356;27;83074;-66
2023/02/19 15:19:45;;;;;;;59.22;28.92;;;23.60;48.10;;;;;;6251111;27;83395;-65
2023/02/19 15:22:46;;;;;;;57.80;28.02;;;23.60;48.10;;;;;;6250167;27;84946;-64
2023/02/19 15:25:48;;;;;;;52.10;25.38;;;23.50;47.70;;;;;;6264577;27;83239;-65
2023/02/19 15:28:48;;;;;;;53.20;24.23;;;23.60;47.50;;;;;;6258531;27;83514;-65
2023/02/19 15:31:49;;;;;;;49.45;21.52;;;23.50;47.20;;;;;;6266013;27;89448;-63
2023/02/19 15:34:49;;;;;;;45.80;20.45;;;23.50;48.10;;;;;;6258771;27;87697;-65
2023/02/19 15:37:50;;;;;;;42.92;20.30;;;23.50;47.40;;;;;;6259225;27;83321;-66
2023/02/19 15:40:50;;;;;;;40.97;18.13;;;23.60;47.40;;;;;;6265644;27;87845;-64
2023/02/19 15:43:52;;;;;;;32.25;16.35;;;23.50;47.10;;;;;;6260170;27;83883;-63
2023/02/19 15:46:53;;;;;;;35.60;15.30;;;23.50;46.70;;;;;;6266398;27;82996;-60
2023/02/19 15:49:53;;;;;;;30.50;14.45;;;23.50;46.50;;;;;;6247252;27;84730;-65
2023/02/19 15:52:54;;;;;;;26.23;13.60;;;23.50;46.20;;;;;;6261171;27;83107;-63
2023/02/19 15:55:54;;;;;;;31.85;13.05;;;23.50;46.30;;;;;;6265726;27;86038;-63
2023/02/19 15:58:55;;;;;;;24.77;11.98;;;23.50;46.30;;;;;;6266267;27;82845;-60
2023/02/19 16:01:56;;;;;;;24.88;12.15;;;23.50;46.10;;;;;;6251729;27;85459;-62
2023/02/19 16:04:56;;;;;;;22.67;12.40;;;23.50;46.30;;;;;;6255132;27;88069;-61
2023/02/19 16:07:57;;;;;;;27.38;11.98;;;23.50;46.40;;;;;;6256167;27;84544;-65
2023/02/19 16:10:57;;;;;;;21.73;11.13;;;23.50;46.20;;;;;;6272432;27;83463;-65
2023/02/19 16:13:58;;;;;;;23.08;10.80;;;23.50;46.20;;;;;;6265604;27;83198;-63
2023/02/19 16:16:58;;;;;;;22.65;10.55;;;23.50;46.60;;;;;;6257171;27;83862;-67
2023/02/19 16:19:59;;;;;;;25.50;10.52;;;23.50;46.50;;;;;;6263908;27;85342;-65
2023/02/19 16:22:59;;;;;;;17.95;10.30;;;23.50;46.20;;;;;;6264950;27;87045;-63
2023/02/19 16:26:00;;;;;;;21.17;10.02;;;23.50;46.50;;;;;;6265794;27;84076;-64
2023/02/19 16:29:00;;;;;;;19.08;9.88;;;23.50;46.30;;;;;;6266959;27;82916;-62
2023/02/19 16:32:01;;;;;;;16.90;8.82;;;23.50;46.30;;;;;;6268645;27;82016;-62
2023/02/19 16:35:01;;;;;;;20.63;8.70;;;23.50;45.10;;;;;;6277832;27;80369;-64
2023/02/19 16:38:02;;;;;;;15.63;7.85;;;23.60;47.50;;;;;;6272670;27;80742;-65
2023/02/19 16:41:02;;;;;;;15.25;7.28;;;23.60;46.10;;;;;;6271571;27;80524;-71